sensor_id;sensor_type;location;lat;lon;timestamp;P1;durP1;ratioP1;P2;durP2;ratioP2
2972;SDS011;1496;51.404;7.232;2023-04-24T00:01:43;17.20;;;1.20;;
2972;SDS011;1496;51.404;7.232;2023-04-24T00:04:10;17.93;;;1.40;;
2972;SDS011;1496;51.404;7.232;2023-04-24T00:06:39;17.60;;;1.40;;
2972;SDS011;1496;51.404;7.232;2023-04-24T00:09:09;15.97;;;1.20;;
2972;SDS011;1496;51.404;7.232;2023-04-24T00:11:35;17.33;;;1.57;;
2972;SDS011;1496;51.404;7.232;2023-04-24T00:14:02;18.40;;;1.63;;
2972;SDS011;1496;51.404;7.232;2023-04-24T00:16:28;19.03;;;1.40;;
2972;SDS011;1496;51.404;7.232;2023-04-24T00:18:55;19.40;;;1.20;;
2972;SDS011;1496;51.404;7.232;2023-04-24T00:21:22;20.70;;;1.47;;
2972;SDS011;1496;51.404;7.232;2023-04-24T00:23:51;18.30;;;1.30;;
2972;SDS011;1496;51.404;7.232;2023-04-24T00:26:18;21.30;;;1.67;;
2972;SDS011;1496;51.404;7.232;2023-04-24T00:28:45;19.10;;;1.50;;
2972;SDS011;1496;51.404;7.232;2023-04-24T00:31:13;19.80;;;2.00;;
2972;SDS011;1496;51.404;7.232;2023-04-24T00:33:39;19.77;;;1.60;;
2972;SDS011;1496;51.404;7.232;2023-04-24T00:36:06;20.20;;;1.80;;
2972;SDS011;1496;51.404;7.232;2023-04-24T00:38:32;21.27;;;1.87;;
2972;SDS011;1496;51.404;7.232;2023-04-24T00:40:58;22.10;;;1.73;;
2972;SDS011;1496;51.404;7.232;2023-04-24T00:43:26;21.83;;;1.93;;
2972;SDS011;1496;51.404;7.232;2023-04-24T00:45:54;21.70;;;1.90;;
2972;SDS011;1496;51.404;7.232;2023-04-24T00:48:20;21.27;;;1.93;;
2972;SDS011;1496;51.404;7.232;2023-04-24T00:50:49;23.90;;;1.90;;
2972;SDS011;1496;51.404;7.232;2023-04-24T00:53:15;23.57;;;2.00;;
2972;SDS011;1496;51.404;7.232;2023-04-24T00:55:42;21.80;;;2.00;;
2972;SDS011;1496;51.404;7.232;2023-04-24T00:58:09;20.53;;;2.00;;
2972;SDS011;1496;51.404;7.232;2023-04-24T01:00:36;19.83;;;2.00;;
2972;SDS011;1496;51.404;7.232;2023-04-24T01:03:04;20.40;;;1.70;;
2972;SDS011;1496;51.404;7.232;2023-04-24T01:05:33;20.20;;;1.67;;
2972;SDS011;1496;51.404;7.232;2023-04-24T01:08:03;19.87;;;2.27;;
2972;SDS011;1496;51.404;7.232;2023-04-24T01:10:31;19.83;;;1.80;;
2972;SDS011;1496;51.404;7.232;2023-04-24T01:13:00;16.70;;;1.60;;
2972;SDS011;1496;51.404;7.232;2023-04-24T01:15:27;18.20;;;1.70;;
2972;SDS011;1496;51.404;7.232;2023-04-24T01:17:54;19.07;;;1.80;;
2972;SDS011;1496;51.404;7.232;2023-04-24T01:20:21;14.33;;;1.83;;
2972;SDS011;1496;51.404;7.232;2023-04-24T01:22:54;5.53;;;1.57;;
2972;SDS011;1496;51.404;7.232;2023-04-24T01:25:22;4.80;;;1.60;;
2972;SDS011;1496;51.404;7.232;2023-04-24T01:27:56;5.03;;;1.93;;
2972;SDS011;1496;51.404;7.232;2023-04-24T01:30:23;5.10;;;2.07;;
2972;SDS011;1496;51.404;7.232;2023-04-24T01:32:52;4.97;;;1.50;;
2972;SDS011;1496;51.404;7.232;2023-04-24T01:35:22;5.93;;;2.10;;
2972;SDS011;1496;51.404;7.232;2023-04-24T01:37:52;3.73;;;1.43;;
2972;SDS011;1496;51.404;7.232;2023-04-24T01:40:19;7.10;;;2.27;;
2972;SDS011;1496;51.404;7.232;2023-04-24T01:42:47;4.90;;;1.73;;
2972;SDS011;1496;51.404;7.232;2023-04-24T01:45:14;8.53;;;2.87;;
2972;SDS011;1496;51.404;7.232;2023-04-24T01:47:42;6.53;;;2.40;;
2972;SDS011;1496;51.404;7.232;2023-04-24T01:50:12;5.90;;;2.67;;
2972;SDS011;1496;51.404;7.232;2023-04-24T01:52:41;5.90;;;2.00;;
2972;SDS011;1496;51.404;7.232;2023-04-24T01:55:10;7.10;;;2.10;;
2972;SDS011;1496;51.404;7.232;2023-04-24T01:57:37;7.33;;;1.80;;
2972;SDS011;1496;51.404;7.232;2023-04-24T02:00:06;10.40;;;2.80;;
2972;SDS011;1496;51.404;7.232;2023-04-24T02:02:39;16.90;;;3.00;;
2972;SDS011;1496;51.404;7.232;2023-04-24T02:05:07;12.77;;;2.57;;
2972;SDS011;1496;51.404;7.232;2023-04-24T02:07:37;15.97;;;2.47;;
2972;SDS011;1496;51.404;7.232;2023-04-24T02:10:03;15.33;;;2.70;;
2972;SDS011;1496;51.404;7.232;2023-04-24T02:12:31;17.60;;;3.53;;
2972;SDS011;1496;51.404;7.232;2023-04-24T02:14:57;17.73;;;4.07;;
2972;SDS011;1496;51.404;7.232;2023-04-24T02:17:25;19.63;;;4.50;;
2972;SDS011;1496;51.404;7.232;2023-04-24T02:19:51;22.53;;;3.97;;
2972;SDS011;1496;51.404;7.232;2023-04-24T02:22:18;19.67;;;4.40;;
2972;SDS011;1496;51.404;7.232;2023-04-24T02:24:45;20.90;;;4.43;;
2972;SDS011;1496;51.404;7.232;2023-04-24T02:27:14;23.37;;;4.33;;
2972;SDS011;1496;51.404;7.232;2023-04-24T02:29:42;21.30;;;3.90;;
2972;SDS011;1496;51.404;7.232;2023-04-24T02:32:10;24.70;;;4.60;;
2972;SDS011;1496;51.404;7.232;2023-04-24T02:34:38;25.70;;;5.50;;
2972;SDS011;1496;51.404;7.232;2023-04-24T02:37:05;25.90;;;5.67;;
2972;SDS011;1496;51.404;7.232;2023-04-24T02:39:32;26.57;;;5.30;;
2972;SDS011;1496;51.404;7.232;2023-04-24T02:41:58;25.30;;;5.70;;
2972;SDS011;1496;51.404;7.232;2023-04-24T02:44:25;27.33;;;6.00;;
2972;SDS011;1496;51.404;7.232;2023-04-24T02:46:52;29.00;;;7.23;;
2972;SDS011;1496;51.404;7.232;2023-04-24T02:49:20;30.43;;;6.37;;
2972;SDS011;1496;51.404;7.232;2023-04-24T02:51:48;26.30;;;6.30;;
2972;SDS011;1496;51.404;7.232;2023-04-24T02:54:14;28.77;;;6.67;;
2972;SDS011;1496;51.404;7.232;2023-04-24T02:56:40;25.43;;;6.90;;
2972;SDS011;1496;51.404;7.232;2023-04-24T02:59:08;26.30;;;6.30;;
2972;SDS011;1496;51.404;7.232;2023-04-24T03:01:36;25.30;;;6.90;;
2972;SDS011;1496;51.404;7.232;2023-04-24T03:04:03;27.27;;;7.63;;
2972;SDS011;1496;51.404;7.232;2023-04-24T03:06:30;27.20;;;7.93;;
2972;SDS011;1496;51.404;7.232;2023-04-24T03:08:58;24.37;;;6.87;;
2972;SDS011;1496;51.404;7.232;2023-04-24T03:11:25;27.13;;;7.37;;
2972;SDS011;1496;51.404;7.232;2023-04-24T03:13:52;22.40;;;6.27;;
2972;SDS011;1496;51.404;7.232;2023-04-24T03:16:19;22.37;;;7.40;;
2972;SDS011;1496;51.404;7.232;2023-04-24T03:18:46;22.80;;;7.30;;
2972;SDS011;1496;51.404;7.232;2023-04-24T03:21:14;23.50;;;6.90;;
2972;SDS011;1496;51.404;7.232;2023-04-24T03:23:42;21.63;;;7.90;;
2972;SDS011;1496;51.404;7.232;2023-04-24T03:26:08;23.27;;;8.30;;
2972;SDS011;1496;51.404;7.232;2023-04-24T03:28:41;24.33;;;8.40;;
2972;SDS011;1496;51.404;7.232;2023-04-24T03:31:09;21.73;;;8.30;;
2972;SDS011;1496;51.404;7.232;2023-04-24T03:33:36;25.63;;;9.40;;
2972;SDS011;1496;51.404;7.232;2023-04-24T03:36:03;25.30;;;9.33;;
2972;SDS011;1496;51.404;7.232;2023-04-24T03:38:39;26.40;;;9.53;;
2972;SDS011;1496;51.404;7.232;2023-04-24T03:41:24;26.30;;;9.33;;
2972;SDS011;1496;51.404;7.232;2023-04-24T03:43:55;29.73;;;10.53;;
2972;SDS011;1496;51.404;7.232;2023-04-24T03:46:22;23.97;;;10.67;;
2972;SDS011;1496;51.404;7.232;2023-04-24T03:48:54;25.43;;;9.40;;
2972;SDS011;1496;51.404;7.232;2023-04-24T03:51:26;22.33;;;8.63;;
2972;SDS011;1496;51.404;7.232;2023-04-24T03:53:56;23.60;;;8.50;;
2972;SDS011;1496;51.404;7.232;2023-04-24T03:56:26;25.00;;;10.10;;
2972;SDS011;1496;51.404;7.232;2023-04-24T03:58:54;21.20;;;9.67;;
2972;SDS011;1496;51.404;7.232;2023-04-24T04:01:21;23.10;;;9.90;;
2972;SDS011;1496;51.404;7.232;2023-04-24T04:04:03;21.63;;;9.33;;
2972;SDS011;1496;51.404;7.232;2023-04-24T04:06:30;21.33;;;9.40;;
2972;SDS011;1496;51.404;7.232;2023-04-24T04:08:59;21.30;;;9.10;;
2972;SDS011;1496;51.404;7.232;2023-04-24T04:11:27;30.70;;;9.93;;
2972;SDS011;1496;51.404;7.232;2023-04-24T04:13:54;21.77;;;9.20;;
2972;SDS011;1496;51.404;7.232;2023-04-24T04:16:22;21.70;;;9.37;;
2972;SDS011;1496;51.404;7.232;2023-04-24T04:18:55;19.97;;;9.30;;
2972;SDS011;1496;51.404;7.232;2023-04-24T04:21:22;23.23;;;9.20;;
2972;SDS011;1496;51.404;7.232;2023-04-24T04:23:53;25.53;;;10.67;;
2972;SDS011;1496;51.404;7.232;2023-04-24T04:26:27;21.40;;;9.73;;
2972;SDS011;1496;51.404;7.232;2023-04-24T04:29:01;25.33;;;10.63;;
2972;SDS011;1496;51.404;7.232;2023-04-24T04:31:31;23.63;;;9.77;;
2972;SDS011;1496;51.404;7.232;2023-04-24T04:34:03;27.70;;;11.47;;
2972;SDS011;1496;51.404;7.232;2023-04-24T04:36:32;26.97;;;10.40;;
2972;SDS011;1496;51.404;7.232;2023-04-24T04:39:15;23.70;;;9.97;;
2972;SDS011;1496;51.404;7.232;2023-04-24T04:42:04;26.53;;;9.47;;
2972;SDS011;1496;51.404;7.232;2023-04-24T04:44:41;28.90;;;9.47;;
2972;SDS011;1496;51.404;7.232;2023-04-24T04:47:16;27.43;;;11.57;;
2972;SDS011;1496;51.404;7.232;2023-04-24T04:49:44;31.37;;;10.77;;
2972;SDS011;1496;51.404;7.232;2023-04-24T04:52:21;27.90;;;11.10;;
2972;SDS011;1496;51.404;7.232;2023-04-24T04:54:56;24.27;;;10.93;;
2972;SDS011;1496;51.404;7.232;2023-04-24T04:57:36;28.40;;;10.67;;
2972;SDS011;1496;51.404;7.232;2023-04-24T05:00:04;24.70;;;10.90;;
2972;SDS011;1496;51.404;7.232;2023-04-24T05:02:41;27.10;;;11.53;;
2972;SDS011;1496;51.404;7.232;2023-04-24T05:05:08;22.93;;;9.77;;
2972;SDS011;1496;51.404;7.232;2023-04-24T05:07:36;22.17;;;10.70;;
2972;SDS011;1496;51.404;7.232;2023-04-24T05:10:03;22.57;;;10.50;;
2972;SDS011;1496;51.404;7.232;2023-04-24T05:12:30;26.00;;;10.07;;
2972;SDS011;1496;51.404;7.232;2023-04-24T05:14:57;20.13;;;9.77;;
2972;SDS011;1496;51.404;7.232;2023-04-24T05:17:25;22.23;;;9.60;;
2972;SDS011;1496;51.404;7.232;2023-04-24T05:19:54;23.90;;;10.23;;
2972;SDS011;1496;51.404;7.232;2023-04-24T05:22:21;27.57;;;10.40;;
2972;SDS011;1496;51.404;7.232;2023-04-24T05:24:50;25.77;;;9.30;;
2972;SDS011;1496;51.404;7.232;2023-04-24T05:27:33;21.97;;;9.70;;
2972;SDS011;1496;51.404;7.232;2023-04-24T05:30:03;21.40;;;8.47;;
2972;SDS011;1496;51.404;7.232;2023-04-24T05:32:31;25.83;;;10.07;;
2972;SDS011;1496;51.404;7.232;2023-04-24T05:34:58;19.57;;;8.20;;
2972;SDS011;1496;51.404;7.232;2023-04-24T05:37:26;19.17;;;8.63;;
2972;SDS011;1496;51.404;7.232;2023-04-24T05:39:54;18.23;;;10.10;;
2972;SDS011;1496;51.404;7.232;2023-04-24T05:42:21;20.63;;;11.07;;
2972;SDS011;1496;51.404;7.232;2023-04-24T05:44:49;17.83;;;9.53;;
2972;SDS011;1496;51.404;7.232;2023-04-24T05:47:16;14.43;;;9.90;;
2972;SDS011;1496;51.404;7.232;2023-04-24T05:49:43;19.60;;;10.60;;
2972;SDS011;1496;51.404;7.232;2023-04-24T05:52:10;14.77;;;10.30;;
2972;SDS011;1496;51.404;7.232;2023-04-24T05:54:38;13.30;;;9.23;;
2972;SDS011;1496;51.404;7.232;2023-04-24T05:57:06;15.23;;;10.20;;
2972;SDS011;1496;51.404;7.232;2023-04-24T05:59:48;13.00;;;9.90;;
2972;SDS011;1496;51.404;7.232;2023-04-24T06:02:16;16.73;;;9.73;;
2972;SDS011;1496;51.404;7.232;2023-04-24T06:04:46;15.73;;;10.23;;
2972;SDS011;1496;51.404;7.232;2023-04-24T06:07:14;12.33;;;9.67;;
2972;SDS011;1496;51.404;7.232;2023-04-24T06:09:42;11.47;;;9.30;;
2972;SDS011;1496;51.404;7.232;2023-04-24T06:12:11;13.77;;;9.10;;
2972;SDS011;1496;51.404;7.232;2023-04-24T06:14:55;14.93;;;9.00;;
2972;SDS011;1496;51.404;7.232;2023-04-24T06:17:31;12.33;;;9.60;;
2972;SDS011;1496;51.404;7.232;2023-04-24T06:20:00;11.90;;;7.87;;
2972;SDS011;1496;51.404;7.232;2023-04-24T06:22:31;11.77;;;7.17;;
2972;SDS011;1496;51.404;7.232;2023-04-24T06:24:58;9.17;;;7.30;;
2972;SDS011;1496;51.404;7.232;2023-04-24T06:27:26;11.50;;;8.80;;
2972;SDS011;1496;51.404;7.232;2023-04-24T06:29:53;11.17;;;7.63;;
2972;SDS011;1496;51.404;7.232;2023-04-24T06:32:21;12.67;;;8.20;;
2972;SDS011;1496;51.404;7.232;2023-04-24T06:34:50;17.97;;;8.40;;
2972;SDS011;1496;51.404;7.232;2023-04-24T06:37:19;8.87;;;7.50;;
2972;SDS011;1496;51.404;7.232;2023-04-24T06:39:47;10.37;;;7.67;;
2972;SDS011;1496;51.404;7.232;2023-04-24T06:42:14;11.50;;;8.37;;
2972;SDS011;1496;51.404;7.232;2023-04-24T06:44:43;14.23;;;8.97;;
2972;SDS011;1496;51.404;7.232;2023-04-24T06:47:10;10.80;;;7.50;;
2972;SDS011;1496;51.404;7.232;2023-04-24T06:49:40;10.43;;;8.30;;
2972;SDS011;1496;51.404;7.232;2023-04-24T06:52:07;10.00;;;8.30;;
2972;SDS011;1496;51.404;7.232;2023-04-24T06:54:34;10.23;;;7.47;;
2972;SDS011;1496;51.404;7.232;2023-04-24T06:57:01;10.87;;;7.57;;
2972;SDS011;1496;51.404;7.232;2023-04-24T06:59:29;10.00;;;8.30;;
2972;SDS011;1496;51.404;7.232;2023-04-24T07:01:56;12.07;;;8.57;;
2972;SDS011;1496;51.404;7.232;2023-04-24T07:04:23;10.27;;;7.97;;
2972;SDS011;1496;51.404;7.232;2023-04-24T07:06:51;8.60;;;7.30;;
2972;SDS011;1496;51.404;7.232;2023-04-24T07:09:20;11.07;;;8.57;;
2972;SDS011;1496;51.404;7.232;2023-04-24T07:11:47;10.67;;;7.70;;
2972;SDS011;1496;51.404;7.232;2023-04-24T07:14:14;10.20;;;7.93;;
2972;SDS011;1496;51.404;7.232;2023-04-24T07:16:42;8.40;;;7.17;;
2972;SDS011;1496;51.404;7.232;2023-04-24T07:19:09;7.63;;;5.50;;
2972;SDS011;1496;51.404;7.232;2023-04-24T07:21:39;5.90;;;5.30;;
2972;SDS011;1496;51.404;7.232;2023-04-24T07:24:06;9.77;;;6.13;;
2972;SDS011;1496;51.404;7.232;2023-04-24T07:26:38;8.20;;;5.57;;
2972;SDS011;1496;51.404;7.232;2023-04-24T07:29:06;7.70;;;6.10;;
2972;SDS011;1496;51.404;7.232;2023-04-24T07:31:34;6.53;;;5.60;;
2972;SDS011;1496;51.404;7.232;2023-04-24T07:34:01;9.10;;;6.30;;
2972;SDS011;1496;51.404;7.232;2023-04-24T07:36:29;6.57;;;5.50;;
2972;SDS011;1496;51.404;7.232;2023-04-24T07:38:58;7.03;;;4.93;;
2972;SDS011;1496;51.404;7.232;2023-04-24T07:41:24;16.07;;;6.10;;
2972;SDS011;1496;51.404;7.232;2023-04-24T07:43:51;6.90;;;5.00;;
2972;SDS011;1496;51.404;7.232;2023-04-24T07:46:21;5.87;;;4.20;;
2972;SDS011;1496;51.404;7.232;2023-04-24T07:48:49;3.43;;;3.13;;
2972;SDS011;1496;51.404;7.232;2023-04-24T07:51:17;2.80;;;2.60;;
2972;SDS011;1496;51.404;7.232;2023-04-24T07:53:45;5.20;;;2.67;;
2972;SDS011;1496;51.404;7.232;2023-04-24T07:56:12;3.30;;;2.20;;
2972;SDS011;1496;51.404;7.232;2023-04-24T07:58:38;2.30;;;2.03;;
2972;SDS011;1496;51.404;7.232;2023-04-24T08:01:04;2.70;;;2.40;;
2972;SDS011;1496;51.404;7.232;2023-04-24T08:03:31;3.37;;;3.07;;
2972;SDS011;1496;51.404;7.232;2023-04-24T08:05:59;3.80;;;2.77;;
2972;SDS011;1496;51.404;7.232;2023-04-24T08:08:26;2.77;;;2.47;;
2972;SDS011;1496;51.404;7.232;2023-04-24T08:10:53;2.07;;;1.67;;
2972;SDS011;1496;51.404;7.232;2023-04-24T08:13:20;1.63;;;1.50;;
2972;SDS011;1496;51.404;7.232;2023-04-24T08:15:47;2.10;;;1.20;;
2972;SDS011;1496;51.404;7.232;2023-04-24T08:18:17;3.20;;;1.30;;
2972;SDS011;1496;51.404;7.232;2023-04-24T08:20:43;3.10;;;1.50;;
2972;SDS011;1496;51.404;7.232;2023-04-24T08:23:11;1.00;;;0.80;;
2972;SDS011;1496;51.404;7.232;2023-04-24T08:25:40;1.30;;;0.80;;
2972;SDS011;1496;51.404;7.232;2023-04-24T08:28:06;1.33;;;0.73;;
2972;SDS011;1496;51.404;7.232;2023-04-24T08:30:38;0.83;;;0.60;;
2972;SDS011;1496;51.404;7.232;2023-04-24T08:33:05;1.30;;;0.80;;
2972;SDS011;1496;51.404;7.232;2023-04-24T08:35:32;1.10;;;0.70;;
2972;SDS011;1496;51.404;7.232;2023-04-24T08:37:58;1.13;;;0.80;;
2972;SDS011;1496;51.404;7.232;2023-04-24T08:40:33;2.40;;;1.13;;
2972;SDS011;1496;51.404;7.232;2023-04-24T08:43:00;1.00;;;0.83;;
2972;SDS011;1496;51.404;7.232;2023-04-24T08:45:28;1.83;;;1.10;;
2972;SDS011;1496;51.404;7.232;2023-04-24T08:47:56;1.53;;;0.90;;
2972;SDS011;1496;51.404;7.232;2023-04-24T08:50:25;2.43;;;1.20;;
2972;SDS011;1496;51.404;7.232;2023-04-24T08:52:52;3.70;;;1.13;;
2972;SDS011;1496;51.404;7.232;2023-04-24T08:55:19;1.23;;;0.97;;
2972;SDS011;1496;51.404;7.232;2023-04-24T08:57:52;1.33;;;0.90;;
2972;SDS011;1496;51.404;7.232;2023-04-24T09:00:20;2.10;;;1.40;;
2972;SDS011;1496;51.404;7.232;2023-04-24T09:02:49;1.40;;;0.93;;
2972;SDS011;1496;51.404;7.232;2023-04-24T09:05:16;1.20;;;0.90;;
2972;SDS011;1496;51.404;7.232;2023-04-24T09:07:53;2.90;;;1.20;;
2972;SDS011;1496;51.404;7.232;2023-04-24T09:10:22;1.40;;;1.00;;
2972;SDS011;1496;51.404;7.232;2023-04-24T09:12:51;1.80;;;1.40;;
2972;SDS011;1496;51.404;7.232;2023-04-24T09:15:18;2.03;;;1.33;;
2972;SDS011;1496;51.404;7.232;2023-04-24T09:17:46;1.53;;;1.10;;
2972;SDS011;1496;51.404;7.232;2023-04-24T09:20:15;8.20;;;1.27;;
2972;SDS011;1496;51.404;7.232;2023-04-24T09:22:42;1.80;;;1.43;;
2972;SDS011;1496;51.404;7.232;2023-04-24T09:25:11;2.00;;;1.80;;
2972;SDS011;1496;51.404;7.232;2023-04-24T09:27:43;4.10;;;1.90;;
2972;SDS011;1496;51.404;7.232;2023-04-24T09:30:11;2.07;;;1.70;;
2972;SDS011;1496;51.404;7.232;2023-04-24T09:32:39;2.03;;;1.60;;
2972;SDS011;1496;51.404;7.232;2023-04-24T09:35:11;2.20;;;1.67;;
2972;SDS011;1496;51.404;7.232;2023-04-24T09:37:45;2.33;;;1.80;;
2972;SDS011;1496;51.404;7.232;2023-04-24T09:43:01;2.00;;;1.60;;
2972;SDS011;1496;51.404;7.232;2023-04-24T09:45:28;2.43;;;2.23;;
2972;SDS011;1496;51.404;7.232;2023-04-24T09:48:03;3.07;;;2.20;;
2972;SDS011;1496;51.404;7.232;2023-04-24T09:50:33;3.60;;;2.93;;
2972;SDS011;1496;51.404;7.232;2023-04-24T09:53:02;7.00;;;4.03;;
2972;SDS011;1496;51.404;7.232;2023-04-24T09:55:29;5.90;;;4.23;;
2972;SDS011;1496;51.404;7.232;2023-04-24T09:58:01;9.03;;;5.40;;
2972;SDS011;1496;51.404;7.232;2023-04-24T10:00:31;4.70;;;4.20;;
2972;SDS011;1496;51.404;7.232;2023-04-24T10:02:59;4.80;;;3.97;;
2972;SDS011;1496;51.404;7.232;2023-04-24T10:05:31;6.90;;;4.53;;
2972;SDS011;1496;51.404;7.232;2023-04-24T10:08:02;4.07;;;3.63;;
2972;SDS011;1496;51.404;7.232;2023-04-24T10:10:30;3.73;;;3.20;;
2972;SDS011;1496;51.404;7.232;2023-04-24T10:12:58;4.40;;;3.53;;
2972;SDS011;1496;51.404;7.232;2023-04-24T10:15:29;4.60;;;4.00;;
2972;SDS011;1496;51.404;7.232;2023-04-24T10:17:57;4.87;;;3.50;;
2972;SDS011;1496;51.404;7.232;2023-04-24T10:20:27;5.90;;;3.50;;
2972;SDS011;1496;51.404;7.232;2023-04-24T10:22:59;3.93;;;3.30;;
2972;SDS011;1496;51.404;7.232;2023-04-24T10:25:29;4.87;;;2.97;;
2972;SDS011;1496;51.404;7.232;2023-04-24T10:27:57;3.77;;;2.30;;
2972;SDS011;1496;51.404;7.232;2023-04-24T10:30:26;5.33;;;3.10;;
2972;SDS011;1496;51.404;7.232;2023-04-24T10:32:55;5.30;;;3.70;;
2972;SDS011;1496;51.404;7.232;2023-04-24T10:35:22;7.97;;;4.07;;
2972;SDS011;1496;51.404;7.232;2023-04-24T10:38:03;5.43;;;4.10;;
2972;SDS011;1496;51.404;7.232;2023-04-24T10:40:34;6.50;;;4.20;;
2972;SDS011;1496;51.404;7.232;2023-04-24T10:43:02;4.93;;;4.40;;
2972;SDS011;1496;51.404;7.232;2023-04-24T10:45:35;9.07;;;5.10;;
2972;SDS011;1496;51.404;7.232;2023-04-24T10:48:06;10.77;;;5.00;;
2972;SDS011;1496;51.404;7.232;2023-04-24T10:50:44;6.20;;;4.70;;
2972;SDS011;1496;51.404;7.232;2023-04-24T10:53:15;10.03;;;5.87;;
2972;SDS011;1496;51.404;7.232;2023-04-24T10:58:14;13.30;;;6.30;;
2972;SDS011;1496;51.404;7.232;2023-04-24T11:00:42;11.43;;;6.00;;
2972;SDS011;1496;51.404;7.232;2023-04-24T11:03:50;11.87;;;5.10;;
2972;SDS011;1496;51.404;7.232;2023-04-24T11:06:08;14.07;;;6.23;;
2972;SDS011;1496;51.404;7.232;2023-04-24T11:08:41;12.13;;;7.53;;
2972;SDS011;1496;51.404;7.232;2023-04-24T11:11:13;8.60;;;5.80;;
2972;SDS011;1496;51.404;7.232;2023-04-24T11:16:29;12.97;;;6.80;;
2972;SDS011;1496;51.404;7.232;2023-04-24T11:19:04;14.27;;;6.63;;
2972;SDS011;1496;51.404;7.232;2023-04-24T11:21:43;15.60;;;6.60;;
2972;SDS011;1496;51.404;7.232;2023-04-24T11:24:26;14.40;;;6.90;;
2972;SDS011;1496;51.404;7.232;2023-04-24T11:29:43;16.57;;;7.03;;
2972;SDS011;1496;51.404;7.232;2023-04-24T11:34:57;14.90;;;7.50;;
2972;SDS011;1496;51.404;7.232;2023-04-24T11:37:35;16.70;;;6.67;;
2972;SDS011;1496;51.404;7.232;2023-04-24T11:40:12;12.53;;;6.87;;
2972;SDS011;1496;51.404;7.232;2023-04-24T11:42:42;19.70;;;6.93;;
2972;SDS011;1496;51.404;7.232;2023-04-24T11:45:11;14.70;;;6.70;;
2972;SDS011;1496;51.404;7.232;2023-04-24T11:47:42;16.70;;;10.00;;
2972;SDS011;1496;51.404;7.232;2023-04-24T11:50:14;9.93;;;6.60;;
2972;SDS011;1496;51.404;7.232;2023-04-24T11:52:46;15.60;;;8.80;;
2972;SDS011;1496;51.404;7.232;2023-04-24T11:57:48;17.83;;;7.47;;
2972;SDS011;1496;51.404;7.232;2023-04-24T12:00:26;20.60;;;11.07;;
2972;SDS011;1496;51.404;7.232;2023-04-24T12:03:08;11.77;;;6.90;;
2972;SDS011;1496;51.404;7.232;2023-04-24T12:05:37;18.90;;;6.43;;
2972;SDS011;1496;51.404;7.232;2023-04-24T12:08:06;12.63;;;5.63;;
2972;SDS011;1496;51.404;7.232;2023-04-24T12:10:33;8.73;;;4.70;;
2972;SDS011;1496;51.404;7.232;2023-04-24T12:13:00;15.47;;;5.00;;
2972;SDS011;1496;51.404;7.232;2023-04-24T12:15:27;8.50;;;4.60;;
2972;SDS011;1496;51.404;7.232;2023-04-24T12:17:55;11.53;;;3.97;;
2972;SDS011;1496;51.404;7.232;2023-04-24T12:20:29;10.10;;;4.37;;
2972;SDS011;1496;51.404;7.232;2023-04-24T12:22:59;15.33;;;7.13;;
2972;SDS011;1496;51.404;7.232;2023-04-24T12:25:28;16.33;;;5.30;;
2972;SDS011;1496;51.404;7.232;2023-04-24T12:30:48;12.37;;;5.73;;
2972;SDS011;1496;51.404;7.232;2023-04-24T12:33:21;17.20;;;6.47;;
2972;SDS011;1496;51.404;7.232;2023-04-24T12:35:48;8.10;;;5.97;;
2972;SDS011;1496;51.404;7.232;2023-04-24T12:38:21;13.47;;;5.80;;
2972;SDS011;1496;51.404;7.232;2023-04-24T12:40:58;6.57;;;5.30;;
2972;SDS011;1496;51.404;7.232;2023-04-24T12:43:35;9.63;;;5.53;;
2972;SDS011;1496;51.404;7.232;2023-04-24T12:46:02;12.03;;;4.50;;
2972;SDS011;1496;51.404;7.232;2023-04-24T12:48:31;13.57;;;6.30;;
2972;SDS011;1496;51.404;7.232;2023-04-24T12:50:58;9.27;;;4.47;;
2972;SDS011;1496;51.404;7.232;2023-04-24T12:53:26;7.00;;;4.70;;
2972;SDS011;1496;51.404;7.232;2023-04-24T12:55:57;10.23;;;4.60;;
2972;SDS011;1496;51.404;7.232;2023-04-24T12:58:24;12.43;;;5.70;;
2972;SDS011;1496;51.404;7.232;2023-04-24T13:00:52;10.63;;;4.50;;
2972;SDS011;1496;51.404;7.232;2023-04-24T13:03:20;8.97;;;4.03;;
2972;SDS011;1496;51.404;7.232;2023-04-24T13:05:47;9.10;;;4.27;;
2972;SDS011;1496;51.404;7.232;2023-04-24T13:08:14;5.80;;;4.20;;
2972;SDS011;1496;51.404;7.232;2023-04-24T13:10:44;4.53;;;3.50;;
2972;SDS011;1496;51.404;7.232;2023-04-24T13:13:11;9.23;;;3.53;;
2972;SDS011;1496;51.404;7.232;2023-04-24T13:15:39;5.00;;;3.47;;
2972;SDS011;1496;51.404;7.232;2023-04-24T13:18:07;6.73;;;4.63;;
2972;SDS011;1496;51.404;7.232;2023-04-24T13:20:34;5.27;;;2.97;;
2972;SDS011;1496;51.404;7.232;2023-04-24T13:23:00;6.77;;;3.37;;
2972;SDS011;1496;51.404;7.232;2023-04-24T13:25:26;5.13;;;2.90;;
2972;SDS011;1496;51.404;7.232;2023-04-24T13:27:54;4.10;;;2.53;;
2972;SDS011;1496;51.404;7.232;2023-04-24T13:30:21;6.13;;;3.10;;
2972;SDS011;1496;51.404;7.232;2023-04-24T13:32:48;2.50;;;1.50;;
2972;SDS011;1496;51.404;7.232;2023-04-24T13:35:16;5.73;;;2.40;;
2972;SDS011;1496;51.404;7.232;2023-04-24T13:37:42;8.50;;;2.73;;
2972;SDS011;1496;51.404;7.232;2023-04-24T13:40:10;5.03;;;2.20;;
2972;SDS011;1496;51.404;7.232;2023-04-24T13:42:36;11.50;;;2.57;;
2972;SDS011;1496;51.404;7.232;2023-04-24T13:45:05;6.67;;;2.60;;
2972;SDS011;1496;51.404;7.232;2023-04-24T13:47:34;7.33;;;2.20;;
2972;SDS011;1496;51.404;7.232;2023-04-24T13:50:02;10.40;;;3.20;;
2972;SDS011;1496;51.404;7.232;2023-04-24T13:52:30;7.20;;;2.57;;
2972;SDS011;1496;51.404;7.232;2023-04-24T13:54:57;7.00;;;1.90;;
2972;SDS011;1496;51.404;7.232;2023-04-24T13:57:25;9.10;;;2.40;;
2972;SDS011;1496;51.404;7.232;2023-04-24T13:59:55;8.60;;;2.27;;
2972;SDS011;1496;51.404;7.232;2023-04-24T14:02:27;9.90;;;2.53;;
2972;SDS011;1496;51.404;7.232;2023-04-24T14:04:53;7.20;;;1.90;;
2972;SDS011;1496;51.404;7.232;2023-04-24T14:07:21;11.97;;;1.80;;
2972;SDS011;1496;51.404;7.232;2023-04-24T14:09:49;10.97;;;2.00;;
2972;SDS011;1496;51.404;7.232;2023-04-24T14:12:16;15.10;;;2.03;;
2972;SDS011;1496;51.404;7.232;2023-04-24T14:14:46;12.10;;;1.50;;
2972;SDS011;1496;51.404;7.232;2023-04-24T14:17:16;12.70;;;2.73;;
2972;SDS011;1496;51.404;7.232;2023-04-24T14:19:43;13.43;;;2.20;;
2972;SDS011;1496;51.404;7.232;2023-04-24T14:22:10;14.13;;;1.97;;
2972;SDS011;1496;51.404;7.232;2023-04-24T14:24:37;11.70;;;2.20;;
2972;SDS011;1496;51.404;7.232;2023-04-24T14:27:05;13.80;;;2.70;;
2972;SDS011;1496;51.404;7.232;2023-04-24T14:29:32;14.17;;;1.87;;
2972;SDS011;1496;51.404;7.232;2023-04-24T14:31:59;14.80;;;2.63;;
2972;SDS011;1496;51.404;7.232;2023-04-24T14:34:26;12.57;;;2.80;;
2972;SDS011;1496;51.404;7.232;2023-04-24T14:36:52;15.87;;;2.53;;
2972;SDS011;1496;51.404;7.232;2023-04-24T14:39:21;23.00;;;3.37;;
2972;SDS011;1496;51.404;7.232;2023-04-24T14:41:48;23.07;;;3.00;;
2972;SDS011;1496;51.404;7.232;2023-04-24T14:44:14;24.00;;;2.63;;
2972;SDS011;1496;51.404;7.232;2023-04-24T14:46:41;21.17;;;2.20;;
2972;SDS011;1496;51.404;7.232;2023-04-24T14:49:08;23.67;;;2.60;;
2972;SDS011;1496;51.404;7.232;2023-04-24T14:51:36;23.70;;;2.13;;
2972;SDS011;1496;51.404;7.232;2023-04-24T14:54:03;22.10;;;2.30;;
2972;SDS011;1496;51.404;7.232;2023-04-24T14:56:35;21.90;;;1.90;;
2972;SDS011;1496;51.404;7.232;2023-04-24T14:59:02;21.53;;;2.40;;
2972;SDS011;1496;51.404;7.232;2023-04-24T15:01:29;24.10;;;2.00;;
2972;SDS011;1496;51.404;7.232;2023-04-24T15:03:56;22.77;;;2.50;;
2972;SDS011;1496;51.404;7.232;2023-04-24T15:06:22;20.27;;;2.03;;
2972;SDS011;1496;51.404;7.232;2023-04-24T15:08:50;21.20;;;2.30;;
2972;SDS011;1496;51.404;7.232;2023-04-24T15:11:17;21.07;;;2.20;;
2972;SDS011;1496;51.404;7.232;2023-04-24T15:13:45;22.97;;;1.90;;
2972;SDS011;1496;51.404;7.232;2023-04-24T15:16:11;21.80;;;2.13;;
2972;SDS011;1496;51.404;7.232;2023-04-24T15:18:39;21.83;;;2.13;;
2972;SDS011;1496;51.404;7.232;2023-04-24T15:21:05;22.50;;;2.20;;
2972;SDS011;1496;51.404;7.232;2023-04-24T15:23:32;22.53;;;2.33;;
2972;SDS011;1496;51.404;7.232;2023-04-24T15:25:58;22.50;;;2.30;;
2972;SDS011;1496;51.404;7.232;2023-04-24T15:28:27;21.97;;;2.13;;
2972;SDS011;1496;51.404;7.232;2023-04-24T15:30:54;16.90;;;2.17;;
2972;SDS011;1496;51.404;7.232;2023-04-24T15:33:21;15.93;;;2.37;;
2972;SDS011;1496;51.404;7.232;2023-04-24T15:35:49;17.50;;;2.27;;